Time;durP1;ratioP1;P1;durP2;ratioP2;P2;SDS_P1;SDS_P2;PMS_P1;PMS_P2;Temp;Humidity;BMP_temperature;BMP_pressure;BME280_temperature;BME280_humidity;BME280_pressure;Samples;Min_cycle;Max_cycle;Signal;HPM_P1;HPM_P2
2023/09/11 00:00:59;;;;;;;12.13;7.95;;;23.50;99.90;;;;;;5073332;28;20051;-60
2023/09/11 00:03:25;;;;;;;15.50;8.23;;;23.40;99.90;;;;;;5091771;28;20107;-60
2023/09/11 00:05:51;;;;;;;15.18;8.18;;;23.40;99.90;;;;;;5090949;28;20082;-60
2023/09/11 00:08:17;;;;;;;11.43;8.55;;;23.50;99.90;;;;;;5091395;28;20024;-60
2023/09/11 00:10:43;;;;;;;11.82;8.20;;;23.50;99.90;;;;;;5091327;28;20447;-60
2023/09/11 00:13:08;;;;;;;11.07;9.00;;;23.30;99.90;;;;;;5091278;28;20027;-60
2023/09/11 00:15:35;;;;;;;10.88;9.60;;;23.30;99.90;;;;;;5090985;28;20424;-60
2023/09/11 00:18:01;;;;;;;13.90;10.48;;;23.30;99.90;;;;;;5091277;28;20024;-60
2023/09/11 00:20:26;;;;;;;13.18;10.07;;;23.30;99.90;;;;;;5083990;28;20107;-60
2023/09/11 00:22:52;;;;;;;15.15;9.25;;;23.30;99.90;;;;;;5070780;28;20056;-60
2023/09/11 00:25:18;;;;;;;15.70;8.90;;;23.60;99.90;;;;;;5071064;28;20087;-60
2023/09/11 00:27:43;;;;;;;15.18;9.43;;;23.80;99.90;;;;;;5070726;28;20045;-60
2023/09/11 00:30:09;;;;;;;14.27;9.02;;;23.90;99.90;;;;;;5070957;28;20027;-60
2023/09/11 00:32:35;;;;;;;12.88;9.50;;;24.00;99.90;;;;;;5071075;28;20493;-60
2023/09/11 00:35:01;;;;;;;11.32;8.90;;;24.10;99.90;;;;;;5070248;28;20025;-60
2023/09/11 00:37:27;;;;;;;12.70;8.38;;;24.10;99.90;;;;;;5070801;28;20086;-60
2023/09/11 00:39:52;;;;;;;12.60;8.38;;;24.20;99.90;;;;;;5071147;28;20091;-60
2023/09/11 00:42:18;;;;;;;11.68;8.25;;;24.20;99.90;;;;;;5070582;28;20024;-60
2023/09/11 00:44:44;;;;;;;10.70;8.43;;;24.30;99.90;;;;;;5070775;28;20039;-60
2023/09/11 00:47:10;;;;;;;9.45;8.43;;;24.40;99.90;;;;;;5070506;28;20036;-60
2023/09/11 00:49:36;;;;;;;9.18;7.80;;;24.30;99.90;;;;;;5052819;28;20017;-59
2023/09/11 00:52:02;;;;;;;12.50;8.32;;;24.30;99.90;;;;;;5070319;28;20068;-60
2023/09/11 00:54:28;;;;;;;11.32;8.40;;;24.40;99.90;;;;;;5070481;28;20031;-60
2023/09/11 00:56:56;;;;;;;12.93;8.73;;;24.40;99.90;;;;;;5070470;28;20035;-60
2023/09/11 00:59:21;;;;;;;10.82;8.77;;;24.40;99.90;;;;;;5070540;28;20060;-60
2023/09/11 01:01:48;;;;;;;11.23;8.52;;;24.30;99.90;;;;;;5070974;28;20497;-60
2023/09/11 01:04:16;;;;;;;12.05;8.40;;;24.20;99.90;;;;;;5070145;28;20017;-60
2023/09/11 01:06:42;;;;;;;12.90;9.13;;;24.10;99.90;;;;;;5070592;28;20029;-60
2023/09/11 01:09:08;;;;;;;14.07;9.02;;;23.90;99.90;;;;;;5070430;28;20025;-60
2023/09/11 01:11:34;;;;;;;14.52;9.05;;;23.80;99.90;;;;;;5070429;28;20025;-60
2023/09/11 01:14:00;;;;;;;10.57;8.88;;;23.60;99.90;;;;;;5070549;28;20033;-60
2023/09/11 01:16:41;;;;;;;15.23;10.25;;;23.50;99.90;;;;;;5070283;28;20464;-60
2023/09/11 01:19:32;;;;;;;15.55;9.52;;;23.40;99.90;;;;;;5073501;28;20459;-60
2023/09/11 01:22:29;;;;;;;14.23;9.35;;;23.30;99.90;;;;;;5073643;28;20047;-60
2023/09/11 01:25:25;;;;;;;11.15;8.77;;;23.30;99.90;;;;;;5073850;28;20067;-60
2023/09/11 01:28:11;;;;;;;12.93;9.35;;;23.20;99.90;;;;;;5073747;28;20518;-60
2023/09/11 01:30:41;;;;;;;12.23;9.35;;;23.30;99.90;;;;;;5079327;28;20499;-59
2023/09/11 01:33:06;;;;;;;12.70;9.77;;;23.30;99.90;;;;;;5093639;28;20050;-60
2023/09/11 01:35:32;;;;;;;16.08;10.20;;;23.40;99.90;;;;;;5093896;28;20461;-60
2023/09/11 01:37:58;;;;;;;13.45;10.05;;;23.40;99.90;;;;;;5094210;28;20024;-60
2023/09/11 01:40:26;;;;;;;11.27;9.60;;;23.40;99.90;;;;;;5093987;28;20016;-60
2023/09/11 01:42:55;;;;;;;12.23;8.85;;;23.50;99.90;;;;;;5093848;28;20028;-60
2023/09/11 01:45:21;;;;;;;13.63;9.73;;;23.60;99.90;;;;;;5093719;28;20028;-60
2023/09/11 01:47:50;;;;;;;11.57;9.70;;;23.60;99.90;;;;;;5093519;28;20035;-60
2023/09/11 01:50:18;;;;;;;9.77;8.32;;;23.90;99.90;;;;;;5093814;28;20020;-60
2023/09/11 01:52:48;;;;;;;13.10;8.73;;;24.00;99.90;;;;;;5077300;28;20098;-60
2023/09/11 01:55:15;;;;;;;11.77;8.57;;;24.10;99.90;;;;;;5073345;28;20033;-60
2023/09/11 01:57:40;;;;;;;14.00;8.88;;;24.20;99.90;;;;;;5073091;28;20025;-60
2023/09/11 02:00:08;;;;;;;15.57;8.77;;;24.20;99.90;;;;;;5073353;28;20079;-60
2023/09/11 02:02:33;;;;;;;9.80;6.18;;;24.30;99.90;;;;;;5072865;28;20020;-60
2023/09/11 02:05:00;;;;;;;10.75;5.72;;;24.40;99.90;;;;;;5073196;28;20029;-60
2023/09/11 02:07:26;;;;;;;8.10;6.00;;;24.40;99.90;;;;;;5073213;28;20036;-60
2023/09/11 02:09:51;;;;;;;6.95;5.68;;;24.30;99.90;;;;;;5073671;28;20025;-60
2023/09/11 02:12:17;;;;;;;8.20;5.72;;;24.20;99.90;;;;;;5073086;28;20119;-60
2023/09/11 02:14:43;;;;;;;8.02;5.80;;;24.20;99.90;;;;;;5054743;28;20024;-62
2023/09/11 02:17:08;;;;;;;5.60;5.10;;;24.20;99.90;;;;;;5072828;28;20497;-60
2023/09/11 02:19:34;;;;;;;7.10;5.00;;;24.20;99.90;;;;;;5072749;28;20587;-60
2023/09/11 02:22:00;;;;;;;5.80;4.10;;;24.10;99.90;;;;;;5072696;28;20039;-60
2023/09/11 02:24:26;;;;;;;8.10;4.03;;;24.10;99.90;;;;;;5073208;28;20052;-60
2023/09/11 02:26:55;;;;;;;8.40;4.85;;;24.00;99.90;;;;;;5072592;28;20063;-60
2023/09/11 02:29:20;;;;;;;6.07;3.35;;;23.90;99.90;;;;;;5071409;28;20048;-60
2023/09/11 02:31:46;;;;;;;7.63;3.58;;;23.70;99.90;;;;;;5072513;28;20033;-60
2023/09/11 02:34:12;;;;;;;7.47;4.20;;;23.50;99.90;;;;;;5072584;28;20045;-60
2023/09/11 02:36:38;;;;;;;6.18;3.95;;;23.50;99.90;;;;;;5072866;28;20024;-60
2023/09/11 02:39:04;;;;;;;6.45;4.22;;;23.30;99.90;;;;;;5072349;28;20107;-60
2023/09/11 02:41:29;;;;;;;5.95;3.55;;;23.30;99.90;;;;;;5072479;28;20449;-60
2023/09/11 02:43:55;;;;;;;8.80;4.40;;;23.30;99.90;;;;;;5072336;28;20047;-60
2023/09/11 02:46:21;;;;;;;8.05;4.80;;;23.30;99.90;;;;;;5072329;28;20109;-60
2023/09/11 02:48:47;;;;;;;6.35;4.65;;;23.20;99.90;;;;;;5072019;28;20028;-60
2023/09/11 02:51:14;;;;;;;6.32;4.88;;;23.20;99.90;;;;;;5072078;28;20107;-60
2023/09/11 02:53:40;;;;;;;6.70;4.70;;;23.10;99.90;;;;;;5072485;28;20029;-60
2023/09/11 02:56:05;;;;;;;7.82;4.85;;;23.10;99.90;;;;;;5072263;28;20020;-59
2023/09/11 02:58:31;;;;;;;8.55;5.28;;;23.10;99.90;;;;;;5053812;28;20032;-60
2023/09/11 03:01:04;;;;;;;6.97;5.60;;;23.00;99.90;;;;;;5072321;28;20067;-60
2023/09/11 03:03:31;;;;;;;8.77;5.85;;;22.90;99.90;;;;;;5072052;28;20043;-60
2023/09/11 03:05:58;;;;;;;7.47;5.18;;;22.80;99.90;;;;;;5071959;28;20029;-60
2023/09/11 03:08:24;;;;;;;5.80;4.85;;;22.80;99.90;;;;;;5071909;28;20460;-59
2023/09/11 03:10:50;;;;;;;5.72;4.80;;;23.00;99.90;;;;;;5071872;28;20024;-60
2023/09/11 03:13:16;;;;;;;7.25;4.85;;;23.20;99.90;;;;;;5071496;28;20497;-60
2023/09/11 03:15:44;;;;;;;5.22;4.72;;;23.40;99.90;;;;;;5071575;28;20095;-60
2023/09/11 03:18:11;;;;;;;8.27;5.13;;;23.50;99.90;;;;;;5071450;28;20490;-60
2023/09/11 03:20:37;;;;;;;5.88;4.38;;;23.50;99.90;;;;;;5071932;28;20013;-60
2023/09/11 03:23:03;;;;;;;6.70;4.63;;;23.50;99.90;;;;;;5071456;28;20094;-60
2023/09/11 03:25:35;;;;;;;8.68;4.65;;;23.50;99.90;;;;;;5071474;28;20409;-60
2023/09/11 03:28:01;;;;;;;5.43;4.25;;;23.50;99.90;;;;;;5071004;28;20059;-60
2023/09/11 03:30:27;;;;;;;5.28;4.47;;;23.50;99.90;;;;;;5071497;28;20020;-60
2023/09/11 03:32:53;;;;;;;5.57;4.30;;;23.50;99.90;;;;;;5071820;28;20563;-60
2023/09/11 03:35:18;;;;;;;5.75;4.40;;;23.40;99.90;;;;;;5071054;28;20071;-60
2023/09/11 03:37:44;;;;;;;7.68;4.40;;;23.40;99.90;;;;;;5071701;28;20103;-60
2023/09/11 03:40:20;;;;;;;5.45;4.32;;;23.40;99.90;;;;;;5070956;28;20025;-59
2023/09/11 03:42:46;;;;;;;6.18;4.65;;;23.40;99.90;;;;;;5070749;28;20036;-60
2023/09/11 03:45:11;;;;;;;6.22;4.43;;;23.30;99.90;;;;;;5071347;28;20021;-60
2023/09/11 03:47:37;;;;;;;5.38;4.63;;;23.20;99.90;;;;;;5071474;28;20025;-60
2023/09/11 03:50:04;;;;;;;5.15;4.55;;;23.00;99.90;;;;;;5072156;28;20316;-60
2023/09/11 03:52:30;;;;;;;5.47;4.90;;;22.80;99.90;;;;;;5077114;28;20047;-60
2023/09/11 03:54:55;;;;;;;5.72;4.97;;;22.60;99.90;;;;;;5053548;28;20119;-60
2023/09/11 03:57:21;;;;;;;7.15;4.80;;;22.50;99.90;;;;;;5070789;28;20169;-60
2023/09/11 03:59:47;;;;;;;5.57;5.13;;;22.40;99.90;;;;;;5071095;28;20124;-60
2023/09/11 04:02:12;;;;;;;8.13;5.30;;;22.30;99.90;;;;;;5071177;28;20033;-60
2023/09/11 04:04:38;;;;;;;7.82;5.90;;;22.30;99.90;;;;;;5071221;28;20460;-60
2023/09/11 04:07:03;;;;;;;5.78;5.25;;;22.30;99.90;;;;;;5071327;28;20044;-60
2023/09/11 04:09:32;;;;;;;6.80;5.50;;;22.30;99.90;;;;;;5070500;28;20087;-60
2023/09/11 04:12:01;;;;;;;6.10;5.50;;;22.20;99.90;;;;;;5070927;28;20028;-60
2023/09/11 04:14:26;;;;;;;7.30;5.63;;;22.20;99.90;;;;;;5070886;28;20024;-60
2023/09/11 04:16:52;;;;;;;6.57;5.82;;;22.10;99.90;;;;;;5070877;28;20099;-59
2023/09/11 04:19:18;;;;;;;6.25;5.55;;;22.10;99.90;;;;;;5053027;28;20052;-60
2023/09/11 04:21:43;;;;;;;6.40;5.72;;;22.00;99.90;;;;;;5052799;28;20104;-60
2023/09/11 04:24:12;;;;;;;6.10;5.50;;;21.90;99.90;;;;;;5070927;28;20549;-60
2023/09/11 04:26:39;;;;;;;6.80;5.80;;;21.90;99.90;;;;;;5070320;28;20029;-59
2023/09/11 04:29:06;;;;;;;6.53;5.70;;;21.90;99.90;;;;;;5071145;28;20417;-59
2023/09/11 04:31:31;;;;;;;7.03;5.80;;;21.80;99.90;;;;;;5070650;28;20020;-60
2023/09/11 04:33:57;;;;;;;7.13;5.40;;;22.00;99.90;;;;;;5070867;28;20031;-60
2023/09/11 04:36:23;;;;;;;7.35;6.13;;;22.10;99.90;;;;;;5070801;28;20059;-60
2023/09/11 04:38:48;;;;;;;7.72;5.55;;;22.20;99.90;;;;;;5052673;28;20025;-59
2023/09/11 04:41:15;;;;;;;5.80;5.20;;;22.20;99.90;;;;;;5052238;28;20115;-59
2023/09/11 04:43:41;;;;;;;5.78;5.22;;;22.20;99.90;;;;;;5070850;28;20528;-59
2023/09/11 04:46:07;;;;;;;5.13;4.70;;;22.30;99.90;;;;;;5052653;28;20056;-60
2023/09/11 04:48:33;;;;;;;5.38;4.75;;;22.30;99.90;;;;;;5070755;28;20036;-60
2023/09/11 04:50:58;;;;;;;6.13;4.90;;;22.30;99.90;;;;;;5070817;28;20020;-60
2023/09/11 04:53:24;;;;;;;5.43;4.72;;;22.30;99.90;;;;;;5072907;28;20116;-60
2023/09/11 04:55:50;;;;;;;6.30;4.68;;;22.30;99.90;;;;;;5074024;28;20478;-60
2023/09/11 04:58:16;;;;;;;4.93;4.35;;;22.30;99.90;;;;;;5074001;28;20477;-60
2023/09/11 05:00:42;;;;;;;4.85;4.43;;;22.30;99.90;;;;;;5074823;28;20051;-60
2023/09/11 05:03:08;;;;;;;5.15;4.50;;;22.30;99.90;;;;;;5074486;28;20470;-59
2023/09/11 05:05:38;;;;;;;5.80;4.63;;;22.30;99.90;;;;;;5074279;28;20067;-60
2023/09/11 05:08:06;;;;;;;5.47;4.57;;;22.20;99.90;;;;;;5074191;28;20489;-60
2023/09/11 05:10:31;;;;;;;5.15;4.65;;;22.10;99.90;;;;;;5074131;28;20058;-59
2023/09/11 05:12:57;;;;;;;6.13;4.72;;;22.00;99.90;;;;;;5074176;28;20037;-59
2023/09/11 05:15:23;;;;;;;5.70;4.97;;;21.90;99.90;;;;;;5074115;28;20024;-60
2023/09/11 05:17:49;;;;;;;5.88;5.03;;;21.80;99.90;;;;;;5080796;28;20155;-60
2023/09/11 05:20:15;;;;;;;5.90;5.30;;;21.80;99.90;;;;;;5073658;28;20339;-60
2023/09/11 05:22:41;;;;;;;5.40;4.63;;;21.80;99.90;;;;;;5073470;28;20031;-60
2023/09/11 05:25:08;;;;;;;5.82;5.32;;;21.70;99.90;;;;;;5072776;28;20029;-60
2023/09/11 05:27:33;;;;;;;6.05;5.22;;;21.60;99.90;;;;;;5067458;28;20151;-60
2023/09/11 05:29:59;;;;;;;5.75;5.10;;;21.50;99.90;;;;;;5054013;28;20048;-60
2023/09/11 05:32:25;;;;;;;7.97;5.38;;;21.50;99.90;;;;;;5053797;28;20044;-62
2023/09/11 05:34:52;;;;;;;7.18;5.40;;;21.50;99.90;;;;;;5053779;28;20104;-60
2023/09/11 05:37:18;;;;;;;5.97;5.35;;;21.50;99.90;;;;;;5054174;28;20013;-60
2023/09/11 05:39:44;;;;;;;6.75;5.75;;;21.50;99.90;;;;;;5053284;28;20031;-60
2023/09/11 05:42:10;;;;;;;6.53;5.45;;;21.40;99.90;;;;;;5053327;28;20470;-60
2023/09/11 05:44:36;;;;;;;8.13;5.40;;;21.40;99.90;;;;;;5054050;28;20032;-60
2023/09/11 05:47:03;;;;;;;6.18;5.40;;;21.40;99.90;;;;;;5053164;28;20025;-60
2023/09/11 05:49:29;;;;;;;6.13;5.53;;;21.40;99.90;;;;;;5053454;28;20509;-60
2023/09/11 05:51:55;;;;;;;6.93;6.20;;;21.40;99.90;;;;;;5053254;28;20037;-60
2023/09/11 05:54:21;;;;;;;5.82;5.32;;;21.50;99.90;;;;;;5052263;28;20033;-60
2023/09/11 05:56:47;;;;;;;7.28;5.05;;;21.70;99.90;;;;;;5050209;28;20545;-60
2023/09/11 05:59:14;;;;;;;7.63;5.22;;;21.70;99.90;;;;;;5052795;28;20474;-60
2023/09/11 06:01:40;;;;;;;7.70;5.68;;;21.80;99.90;;;;;;5053279;28;20035;-60
2023/09/11 06:04:06;;;;;;;7.13;6.03;;;21.90;99.90;;;;;;5052569;28;20020;-60
2023/09/11 06:06:31;;;;;;;6.20;5.25;;;22.00;99.90;;;;;;5052806;28;20032;-60
2023/09/11 06:08:59;;;;;;;7.43;5.72;;;22.10;99.90;;;;;;5052690;28;20070;-60
2023/09/11 06:11:25;;;;;;;6.05;5.15;;;22.10;99.90;;;;;;5052498;28;20039;-59
2023/09/11 06:13:50;;;;;;;7.43;5.25;;;22.10;99.90;;;;;;5053031;28;20028;-60
2023/09/11 06:16:16;;;;;;;8.13;5.30;;;22.10;99.90;;;;;;5053212;28;20399;-60
2023/09/11 06:18:42;;;;;;;6.80;6.07;;;22.00;99.90;;;;;;5053000;28;20029;-60
2023/09/11 06:21:07;;;;;;;8.23;5.55;;;22.00;99.90;;;;;;5052765;28;20020;-60
2023/09/11 06:23:33;;;;;;;7.43;5.50;;;22.00;99.90;;;;;;5052371;28;20036;-60
2023/09/11 06:25:59;;;;;;;7.07;5.60;;;22.10;99.90;;;;;;5052787;28;20096;-60
2023/09/11 06:28:24;;;;;;;6.53;5.22;;;22.10;99.90;;;;;;5068052;28;20058;-60
2023/09/11 06:30:50;;;;;;;7.75;5.60;;;22.10;99.90;;;;;;5072741;28;20108;-60
2023/09/11 06:33:15;;;;;;;6.13;5.53;;;22.10;99.90;;;;;;5072782;28;20171;-60
2023/09/11 06:35:41;;;;;;;5.95;5.32;;;22.00;99.90;;;;;;5073097;28;20027;-60
2023/09/11 06:38:07;;;;;;;6.63;5.70;;;21.90;99.90;;;;;;5072125;28;20516;-60
2023/09/11 06:40:32;;;;;;;7.32;5.43;;;21.80;99.90;;;;;;5072595;28;20012;-60
2023/09/11 06:42:58;;;;;;;5.93;5.28;;;21.80;99.90;;;;;;5072888;28;20028;-60
2023/09/11 06:45:24;;;;;;;6.47;5.80;;;21.80;99.90;;;;;;5072309;28;20477;-60
2023/09/11 06:47:49;;;;;;;6.60;5.60;;;21.80;99.90;;;;;;5072497;28;20028;-59
2023/09/11 06:50:15;;;;;;;7.60;5.55;;;21.80;99.90;;;;;;5072522;28;20513;-60
2023/09/11 06:52:41;;;;;;;7.10;6.10;;;21.80;99.90;;;;;;5071966;28;20512;-60
2023/09/11 06:55:07;;;;;;;7.43;5.80;;;21.90;99.90;;;;;;5071833;28;20444;-60
2023/09/11 06:57:33;;;;;;;7.95;5.70;;;21.80;99.90;;;;;;5072459;28;20441;-60
2023/09/11 06:59:59;;;;;;;7.15;5.63;;;21.80;99.90;;;;;;5092440;28;20052;-60
2023/09/11 07:02:25;;;;;;;7.82;5.55;;;21.90;99.90;;;;;;5091841;28;20042;-59
2023/09/11 07:04:51;;;;;;;5.93;5.40;;;21.80;99.90;;;;;;5091523;28;20024;-59
2023/09/11 07:07:16;;;;;;;6.63;5.65;;;21.80;99.90;;;;;;5091644;28;20440;-59
2023/09/11 07:09:42;;;;;;;7.13;5.93;;;21.90;99.90;;;;;;5092127;28;20028;-59
2023/09/11 07:12:07;;;;;;;7.72;5.72;;;22.10;99.90;;;;;;5092042;28;20036;-59
2023/09/11 07:14:33;;;;;;;7.45;6.00;;;22.30;99.90;;;;;;5091708;28;20095;-59
2023/09/11 07:17:02;;;;;;;6.72;5.78;;;22.40;99.90;;;;;;5091762;28;20035;-59
2023/09/11 07:19:27;;;;;;;7.00;6.20;;;22.50;99.90;;;;;;5091542;28;20024;-59
2023/09/11 07:21:53;;;;;;;8.35;6.28;;;22.60;99.90;;;;;;5072527;28;20036;-59
2023/09/11 07:24:19;;;;;;;8.05;6.15;;;22.80;99.90;;;;;;5053584;28;20094;-58
2023/09/11 07:26:44;;;;;;;9.93;6.05;;;23.00;99.90;;;;;;5072021;28;20031;-59
2023/09/11 07:29:10;;;;;;;8.73;6.13;;;23.00;99.90;;;;;;5066571;28;20076;-58
2023/09/11 07:31:36;;;;;;;8.35;6.20;;;23.10;99.90;;;;;;5058983;28;20040;-60
2023/09/11 07:34:02;;;;;;;10.75;6.35;;;23.10;99.90;;;;;;5055894;28;20028;-58
2023/09/11 07:36:28;;;;;;;7.88;6.60;;;23.20;99.90;;;;;;5061819;28;20035;-58
2023/09/11 07:38:54;;;;;;;8.85;6.82;;;23.10;99.90;;;;;;5057452;28;20111;-59
2023/09/11 07:41:21;;;;;;;9.45;6.70;;;23.20;99.90;;;;;;5050524;28;20124;-58
2023/09/11 07:43:49;;;;;;;8.85;6.45;;;23.10;99.90;;;;;;5048162;28;20095;-58
2023/09/11 07:46:24;;;;;;;7.35;6.43;;;23.20;99.90;;;;;;5056515;28;20111;-59
2023/09/11 07:48:50;;;;;;;7.90;7.10;;;23.10;99.90;;;;;;5079842;28;20024;-59
2023/09/11 07:51:16;;;;;;;7.85;6.85;;;22.90;99.90;;;;;;5069579;28;20028;-59
2023/09/11 07:53:44;;;;;;;9.05;7.13;;;22.90;99.90;;;;;;5089923;28;20028;-60
2023/09/11 07:56:10;;;;;;;8.07;7.28;;;22.90;99.90;;;;;;5073577;28;20090;-59
2023/09/11 07:58:36;;;;;;;7.65;6.95;;;22.90;99.90;;;;;;5086244;28;20062;-58
2023/09/11 08:01:02;;;;;;;9.85;7.18;;;23.00;99.90;;;;;;5091422;28;20095;-59
2023/09/11 08:03:28;;;;;;;9.75;7.35;;;22.90;99.90;;;;;;5090855;28;20099;-59
2023/09/11 08:05:54;;;;;;;8.25;7.50;;;22.90;99.90;;;;;;5091581;28;20103;-59
2023/09/11 08:08:20;;;;;;;8.82;7.55;;;22.90;99.90;;;;;;5091146;28;20565;-59
2023/09/11 08:10:46;;;;;;;8.57;7.13;;;22.80;99.90;;;;;;5091260;28;20090;-59
2023/09/11 08:13:11;;;;;;;7.90;7.05;;;22.80;99.90;;;;;;5091472;28;20106;-58
2023/09/11 08:15:37;;;;;;;8.30;7.55;;;22.80;99.90;;;;;;5091193;28;20035;-59
2023/09/11 08:18:03;;;;;;;9.18;7.00;;;22.80;99.90;;;;;;5064617;28;20035;-59
2023/09/11 08:20:29;;;;;;;9.95;7.38;;;22.70;99.90;;;;;;5061108;28;20032;-60
2023/09/11 08:22:54;;;;;;;8.63;7.75;;;22.80;99.90;;;;;;5065804;28;20017;-59
2023/09/11 08:25:20;;;;;;;7.75;6.82;;;22.80;99.90;;;;;;5050667;28;20037;-60
2023/09/11 08:27:46;;;;;;;8.15;6.80;;;22.90;99.90;;;;;;5052012;28;20049;-59
2023/09/11 08:30:13;;;;;;;8.00;7.00;;;22.70;99.90;;;;;;5054696;28;20040;-59
2023/09/11 08:32:39;;;;;;;7.32;6.55;;;22.70;99.90;;;;;;5054640;28;20087;-59
2023/09/11 08:35:05;;;;;;;8.43;7.32;;;22.60;99.90;;;;;;5054291;28;20112;-59
2023/09/11 08:37:30;;;;;;;8.77;7.00;;;22.60;99.90;;;;;;5054623;28;20036;-59
2023/09/11 08:39:56;;;;;;;9.77;7.28;;;22.60;99.90;;;;;;5054451;28;20028;-59
2023/09/11 08:42:25;;;;;;;7.82;7.03;;;22.60;99.90;;;;;;5055010;28;20037;-59
2023/09/11 08:44:51;;;;;;;7.63;6.82;;;22.60;99.90;;;;;;5054513;28;20025;-59
2023/09/11 08:47:20;;;;;;;7.32;6.43;;;22.70;99.90;;;;;;5054345;28;20031;-59
2023/09/11 08:49:53;;;;;;;7.53;6.82;;;23.00;99.90;;;;;;5054977;28;20052;-59
2023/09/11 08:52:19;;;;;;;8.23;7.13;;;23.20;99.90;;;;;;5066993;28;20044;-59
2023/09/11 08:54:51;;;;;;;7.95;6.82;;;23.30;99.90;;;;;;5074470;28;20392;-59
2023/09/11 08:57:21;;;;;;;8.02;7.28;;;23.40;99.90;;;;;;5090516;28;20107;-59
2023/09/11 08:59:52;;;;;;;7.97;7.28;;;23.50;99.90;;;;;;5094734;28;20039;-59
2023/09/11 09:02:19;;;;;;;7.95;6.88;;;23.70;99.90;;;;;;5094217;28;20541;-59
2023/09/11 09:04:47;;;;;;;8.10;6.63;;;23.80;99.90;;;;;;5094612;28;20066;-59
2023/09/11 09:07:15;;;;;;;9.38;7.88;;;23.80;99.90;;;;;;5094652;28;20051;-59
2023/09/11 09:09:42;;;;;;;10.48;7.97;;;24.10;99.90;;;;;;5094558;28;20464;-59
2023/09/11 09:12:08;;;;;;;10.27;7.90;;;24.00;99.90;;;;;;5094668;28;20071;-59
2023/09/11 09:14:38;;;;;;;10.50;7.97;;;24.00;99.90;;;;;;5076217;28;20405;-59
2023/09/11 09:17:04;;;;;;;11.25;7.75;;;24.00;99.90;;;;;;5094031;28;20028;-59
2023/09/11 09:19:29;;;;;;;10.32;7.97;;;24.00;99.90;;;;;;5094668;28;20086;-58
2023/09/11 09:22:05;;;;;;;9.30;8.45;;;23.90;99.90;;;;;;5074683;28;20028;-59
2023/09/11 09:24:35;;;;;;;9.25;7.97;;;23.90;99.90;;;;;;5074008;28;20039;-59
2023/09/11 09:27:04;;;;;;;9.45;8.45;;;23.80;99.90;;;;;;5073723;28;20052;-59
2023/09/11 09:29:36;;;;;;;11.45;10.35;;;23.80;99.90;;;;;;5074045;28;20074;-59
2023/09/11 09:32:03;;;;;;;10.43;9.33;;;23.60;99.90;;;;;;5073234;28;20052;-59
2023/09/11 09:34:31;;;;;;;12.65;8.80;;;23.60;99.90;;;;;;5073576;28;20671;-59
2023/09/11 09:36:57;;;;;;;10.35;8.90;;;23.60;99.90;;;;;;5073420;28;20032;-59
2023/09/11 09:39:29;;;;;;;13.82;9.30;;;23.60;99.90;;;;;;5073093;28;20300;-59
2023/09/11 09:41:56;;;;;;;10.23;9.13;;;23.60;99.90;;;;;;5073357;28;20108;-59
2023/09/11 09:44:33;;;;;;;9.98;8.85;;;23.60;99.90;;;;;;5073237;28;20032;-59
2023/09/11 09:47:13;;;;;;;9.77;8.77;;;23.60;99.90;;;;;;5073424;28;20480;-59
2023/09/11 09:49:50;;;;;;;9.75;8.85;;;23.70;99.90;;;;;;5073758;28;20043;-59
2023/09/11 09:52:18;;;;;;;9.80;8.73;;;23.70;99.90;;;;;;5073402;28;20041;-60
2023/09/11 09:54:49;;;;;;;9.80;8.80;;;23.70;99.90;;;;;;5073368;28;20037;-59
2023/09/11 09:57:19;;;;;;;11.75;9.15;;;23.60;99.90;;;;;;5073412;28;20028;-59
2023/09/11 10:00:04;;;;;;;10.55;9.20;;;23.60;99.90;;;;;;5073004;28;20493;-59
2023/09/11 10:02:32;;;;;;;11.52;9.68;;;23.60;99.90;;;;;;5073209;28;20032;-59
2023/09/11 10:05:05;;;;;;;12.65;10.25;;;23.60;99.90;;;;;;5073221;28;20020;-59
2023/09/11 10:07:41;;;;;;;11.27;9.63;;;23.60;99.90;;;;;;5072955;28;20028;-59
2023/09/11 10:10:28;;;;;;;10.05;9.05;;;23.60;99.90;;;;;;5073155;28;20020;-58
2023/09/11 10:13:03;;;;;;;10.18;8.68;;;23.90;99.90;;;;;;5073130;28;20044;-59
2023/09/11 10:15:30;;;;;;;10.00;9.00;;;24.10;99.90;;;;;;5072956;28;20017;-59
2023/09/11 10:17:57;;;;;;;10.57;9.48;;;24.20;99.90;;;;;;5072993;28;20039;-59
2023/09/11 10:20:24;;;;;;;11.80;9.57;;;24.50;99.90;;;;;;5072704;28;20013;-59
2023/09/11 10:22:54;;;;;;;9.82;8.75;;;24.60;99.90;;;;;;5072697;28;20064;-59
2023/09/11 10:25:22;;;;;;;9.63;8.63;;;24.40;99.90;;;;;;5072873;28;20031;-59
2023/09/11 10:27:50;;;;;;;9.93;8.98;;;24.60;99.90;;;;;;5072251;28;20052;-59
2023/09/11 10:30:21;;;;;;;9.77;8.65;;;24.70;99.90;;;;;;5072879;28;20036;-59
2023/09/11 10:33:12;;;;;;;11.13;9.10;;;24.70;99.90;;;;;;5072306;28;20032;-57
2023/09/11 10:35:40;;;;;;;10.65;9.15;;;24.70;99.90;;;;;;5072641;28;20035;-57
2023/09/11 10:38:07;;;;;;;11.50;8.90;;;24.80;99.90;;;;;;5087698;28;20439;-58
2023/09/11 10:40:34;;;;;;;10.52;9.20;;;24.80;99.90;;;;;;5092996;28;20028;-59
2023/09/11 10:43:00;;;;;;;9.95;8.95;;;24.80;99.90;;;;;;5091942;28;20436;-59
2023/09/11 10:45:27;;;;;;;11.60;9.50;;;24.90;99.90;;;;;;5092236;28;20028;-59
2023/09/11 10:47:53;;;;;;;11.00;9.90;;;25.00;99.90;;;;;;5091916;28;20032;-60
2023/09/11 10:50:19;;;;;;;12.35;10.10;;;25.10;99.90;;;;;;5091103;28;20428;-59
2023/09/11 10:52:46;;;;;;;11.93;10.57;;;25.20;99.90;;;;;;5074586;28;20060;-59
2023/09/11 10:55:13;;;;;;;12.55;11.32;;;25.30;99.90;;;;;;5092444;28;20397;-59
2023/09/11 10:57:39;;;;;;;12.88;11.57;;;25.30;99.90;;;;;;5091859;28;20028;-59
2023/09/11 11:00:05;;;;;;;12.50;11.20;;;25.10;99.90;;;;;;5092200;28;20028;-59
2023/09/11 11:02:31;;;;;;;13.57;11.70;;;25.00;99.90;;;;;;5092762;28;20096;-58
2023/09/11 11:04:57;;;;;;;14.65;12.15;;;25.00;99.90;;;;;;5092108;28;20032;-59
2023/09/11 11:07:24;;;;;;;13.68;11.85;;;25.00;99.90;;;;;;5092009;28;20028;-59
2023/09/11 11:09:52;;;;;;;13.57;11.18;;;25.00;99.90;;;;;;5092157;28;20401;-59
2023/09/11 11:12:31;;;;;;;13.20;11.85;;;25.10;99.90;;;;;;5091473;28;20074;-59
2023/09/11 11:15:19;;;;;;;13.80;11.48;;;25.20;99.90;;;;;;5091896;28;20101;-59
2023/09/11 11:17:45;;;;;;;26.67;24.35;;;25.30;99.90;;;;;;5092301;28;20032;-59
2023/09/11 11:20:11;;;;;;;125.88;114.85;;;25.40;99.90;;;;;;5086902;28;20441;-59
2023/09/11 11:22:41;;;;;;;89.05;81.30;;;25.60;99.90;;;;;;5053779;28;20026;-59
2023/09/11 11:25:10;;;;;;;45.85;41.63;;;25.80;99.90;;;;;;5071429;28;20473;-59
2023/09/11 11:27:38;;;;;;;59.88;54.28;;;25.80;99.90;;;;;;5070803;28;20067;-59
2023/09/11 11:30:07;;;;;;;54.72;49.83;;;25.90;99.90;;;;;;5071808;28;20520;-59
2023/09/11 11:32:36;;;;;;;53.53;48.72;;;25.90;99.90;;;;;;5061470;28;20067;-59
2023/09/11 11:35:04;;;;;;;147.65;133.98;;;26.00;99.90;;;;;;5059258;28;20049;-59
2023/09/11 11:37:36;;;;;;;156.23;142.38;;;26.00;99.90;;;;;;5064420;28;20032;-59
2023/09/11 11:40:08;;;;;;;160.35;145.75;;;26.10;99.90;;;;;;5051737;28;20016;-60
2023/09/11 11:42:40;;;;;;;108.95;99.07;;;26.30;99.90;;;;;;5050962;28;20033;-59
2023/09/11 11:45:06;;;;;;;62.88;57.15;;;26.50;99.90;;;;;;5051202;28;20087;-59
2023/09/11 11:47:33;;;;;;;36.70;33.25;;;26.50;99.90;;;;;;5056263;28;20565;-60
2023/09/11 11:50:10;;;;;;;40.03;36.25;;;26.70;99.90;;;;;;5061251;28;20023;-59
2023/09/11 11:52:35;;;;;;;30.38;27.38;;;26.70;99.90;;;;;;5070998;28;20044;-60
2023/09/11 11:55:02;;;;;;;22.23;20.15;;;26.70;99.90;;;;;;5070900;28;20031;-59
2023/09/11 11:57:29;;;;;;;17.77;16.00;;;26.70;99.90;;;;;;5071255;28;20102;-59
2023/09/11 11:59:54;;;;;;;13.63;12.32;;;26.80;99.90;;;;;;5071011;28;20020;-59
2023/09/11 12:02:24;;;;;;;13.23;11.95;;;26.80;99.90;;;;;;5070799;28;20378;-59
2023/09/11 12:04:54;;;;;;;11.52;10.40;;;27.00;99.90;;;;;;5070958;28;20036;-59
2023/09/11 12:07:21;;;;;;;10.65;9.65;;;26.90;99.90;;;;;;5071313;28;20107;-59
2023/09/11 12:09:48;;;;;;;11.23;8.98;;;27.00;99.90;;;;;;5070587;28;20060;-59
2023/09/11 12:12:14;;;;;;;8.82;8.02;;;27.20;99.90;;;;;;5080346;28;20063;-59
2023/09/11 12:14:39;;;;;;;9.55;8.30;;;27.30;99.90;;;;;;5090825;28;20508;-59
2023/09/11 12:17:09;;;;;;;8.70;7.90;;;27.20;99.90;;;;;;5083171;28;20024;-59
2023/09/11 12:19:35;;;;;;;10.75;8.13;;;27.30;99.90;;;;;;5064327;28;20358;-59
2023/09/11 12:22:01;;;;;;;11.05;7.78;;;27.30;99.90;;;;;;5087286;28;20122;-59
2023/09/11 12:24:26;;;;;;;9.25;7.93;;;27.30;99.90;;;;;;5090430;28;20051;-60
2023/09/11 12:26:52;;;;;;;8.65;7.75;;;27.30;99.90;;;;;;5091113;28;20028;-59
2023/09/11 12:29:18;;;;;;;8.85;7.95;;;27.20;99.90;;;;;;5091275;28;20028;-59
2023/09/11 12:31:44;;;;;;;12.55;7.90;;;27.10;99.90;;;;;;5091213;28;20042;-59
2023/09/11 12:34:10;;;;;;;7.78;6.97;;;26.90;99.90;;;;;;5072934;28;20481;-59
2023/09/11 12:36:36;;;;;;;9.50;6.68;;;26.70;99.90;;;;;;5082278;28;20032;-59
2023/09/11 12:39:06;;;;;;;7.25;6.18;;;26.60;99.90;;;;;;5057599;28;20071;-59
2023/09/11 12:41:32;;;;;;;7.30;6.60;;;26.50;99.90;;;;;;5070759;28;20489;-58